Time,TemperatureF,DewpointF,PressureIn,WindDirection,WindDirectionDegrees,WindSpeedMPH,WindSpeedGustMPH,Humidity,HourlyPrecipIn,Conditions,Clouds,dailyrainin,SolarRadiationWatts/m^2,SoftwareType,DateUTC
2013-09-27 00:01:00,61.3,57.2,30.04,ESE,112,0.0,0.0,86,0.00,,,0.01,0.0,meteohub,2013-09-27 04:01:00,
2013-09-27 00:02:00,61.3,57.2,30.04,ESE,111,0.0,0.0,86,0.00,,,0.01,0.0,meteohub,2013-09-27 04:02:00,
2013-09-27 00:07:00,61.2,57.0,30.05,ESE,112,0.0,0.0,86,0.00,,,0.00,0.0,meteohub,2013-09-27 04:07:00,
2013-09-27 00:12:00,61.0,56.8,30.05,ESE,112,0.0,0.0,86,0.00,,,0.00,0.0,meteohub,2013-09-27 04:12:00,
2013-09-27 00:17:00,60.8,56.8,30.04,ESE,111,0.0,0.0,87,0.00,,,0.00,0.0,meteohub,2013-09-27 04:17:00,
2013-09-27 00:22:00,61.0,57.0,30.04,ESE,111,0.0,0.0,87,0.00,,,0.00,0.0,meteohub,2013-09-27 04:22:00,
2013-09-27 00:27:00,61.0,57.0,30.04,ESE,112,0.0,0.0,87,0.00,,,0.00,0.0,meteohub,2013-09-27 04:27:00,
2013-09-27 00:32:00,61.0,57.0,30.05,ESE,112,0.0,0.0,87,0.00,,,0.00,0.0,meteohub,2013-09-27 04:32:00,
2013-09-27 00:37:00,61.0,57.4,30.05,ESE,112,0.0,0.0,88,0.00,,,0.00,0.0,meteohub,2013-09-27 04:37:00,
2013-09-27 00:42:00,60.8,57.2,30.04,ESE,111,0.0,0.0,88,0.00,,,0.00,0.0,meteohub,2013-09-27 04:42:00,
2013-09-27 00:47:00,60.6,57.0,30.04,ESE,112,0.0,0.0,88,0.00,,,0.00,0.0,meteohub,2013-09-27 04:47:00,
2013-09-27 00:52:00,60.6,57.4,30.05,ESE,111,0.0,0.0,89,0.00,,,0.00,0.0,meteohub,2013-09-27 04:52:00,
2013-09-27 00:57:00,60.6,57.7,30.05,ESE,111,0.0,0.0,90,0.00,,,0.00,0.0,meteohub,2013-09-27 04:57:00,
2013-09-27 01:02:00,60.6,57.7,30.04,ESE,112,0.0,0.0,90,0.00,,,0.00,0.0,meteohub,2013-09-27 05:02:00,
2013-09-27 01:07:00,60.8,57.9,30.04,ESE,112,0.0,0.0,90,0.00,,,0.00,0.0,meteohub,2013-09-27 05:07:00,
2013-09-27 01:12:00,60.8,57.9,30.05,ESE,112,0.0,0.0,90,0.00,,,0.00,0.0,meteohub,2013-09-27 05:12:00,
2013-09-27 01:17:00,60.8,58.1,30.05,ESE,111,0.0,0.0,91,0.00,,,0.00,0.0,meteohub,2013-09-27 05:17:00,
2013-09-27 01:22:00,60.6,57.9,30.05,ESE,112,0.0,0.0,91,0.00,,,0.00,0.0,meteohub,2013-09-27 05:22:00,
2013-09-27 01:27:00,60.6,57.9,30.05,ESE,112,0.0,0.0,91,0.00,,,0.00,0.0,meteohub,2013-09-27 05:27:00,
2013-09-27 01:32:00,60.6,57.9,30.05,ESE,111,0.0,0.0,91,0.00,,,0.00,0.0,meteohub,2013-09-27 05:32:00,
2013-09-27 01:37:00,60.6,57.9,30.05,ESE,112,0.0,0.0,91,0.00,,,0.00,0.0,meteohub,2013-09-27 05:37:00,
2013-09-27 01:42:00,60.6,57.9,30.05,ESE,112,0.0,0.0,91,0.00,,,0.00,0.0,meteohub,2013-09-27 05:42:00,
2013-09-27 01:47:00,60.4,58.1,30.05,ESE,112,0.0,0.0,92,0.00,,,0.00,0.0,meteohub,2013-09-27 05:47:00,
2013-09-27 01:52:00,60.4,58.1,30.05,ESE,112,0.0,0.0,92,0.00,,,0.00,0.0,meteohub,2013-09-27 05:52:00,
2013-09-27 01:57:00,60.3,57.9,30.05,ESE,112,0.0,0.0,92,0.00,,,0.00,0.0,meteohub,2013-09-27 05:57:00,
2013-09-27 02:02:00,60.1,57.7,30.05,ESE,112,0.0,0.0,92,0.00,,,0.00,0.0,meteohub,2013-09-27 06:02:00,
2013-09-27 02:07:00,59.7,57.7,30.05,ESE,111,0.0,0.0,93,0.00,,,0.00,0.0,meteohub,2013-09-27 06:07:00,
2013-09-27 02:12:00,59.4,57.0,30.05,ESE,111,0.0,0.0,92,0.00,,,0.00,0.0,meteohub,2013-09-27 06:12:00,
2013-09-27 02:17:00,59.2,57.2,30.05,ESE,112,0.0,0.0,93,0.00,,,0.00,0.0,meteohub,2013-09-27 06:17:00,
2013-09-27 02:22:00,59.2,57.2,30.05,ESE,112,0.0,0.0,93,0.00,,,0.00,0.0,meteohub,2013-09-27 06:22:00,
2013-09-27 02:27:00,59.0,57.0,30.05,ESE,112,0.0,0.0,93,0.00,,,0.00,0.0,meteohub,2013-09-27 06:27:00,
2013-09-27 02:32:00,59.0,57.2,30.05,ESE,111,0.0,0.0,94,0.00,,,0.00,0.0,meteohub,2013-09-27 06:32:00,
2013-09-27 02:37:00,59.0,57.2,30.05,ESE,112,0.0,0.0,94,0.00,,,0.00,0.0,meteohub,2013-09-27 06:37:00,
2013-09-27 02:42:00,59.0,57.6,30.05,ESE,112,0.0,0.0,95,0.00,,,0.00,0.0,meteohub,2013-09-27 06:42:00,
2013-09-27 02:47:00,59.0,57.6,30.05,ESE,112,0.0,0.0,95,0.00,,,0.00,0.0,meteohub,2013-09-27 06:47:00,
2013-09-27 02:52:00,59.0,57.6,30.05,ESE,111,0.0,0.0,95,0.00,,,0.00,0.0,meteohub,2013-09-27 06:52:00,
2013-09-27 02:57:00,59.2,57.7,30.05,ESE,112,0.0,0.0,95,0.00,,,0.00,0.0,meteohub,2013-09-27 06:57:00,
2013-09-27 03:02:00,59.4,57.9,30.06,ESE,112,0.0,0.0,95,0.00,,,0.00,0.0,meteohub,2013-09-27 07:02:00,
2013-09-27 03:07:00,59.5,58.1,30.05,ESE,111,0.0,0.0,95,0.00,,,0.00,0.0,meteohub,2013-09-27 07:07:00,
2013-09-27 03:12:00,59.5,58.1,30.05,ESE,112,0.0,0.0,95,0.00,,,0.00,0.0,meteohub,2013-09-27 07:12:00,
2013-09-27 03:17:00,59.7,58.3,30.06,ESE,112,0.0,0.0,95,0.00,,,0.00,0.0,meteohub,2013-09-27 07:17:00,
2013-09-27 03:22:00,59.7,58.3,30.05,ESE,112,0.0,0.0,95,0.00,,,0.00,0.0,meteohub,2013-09-27 07:22:00,
2013-09-27 03:27:00,59.5,58.1,30.06,ESE,112,0.0,0.0,95,0.00,,,0.00,0.0,meteohub,2013-09-27 07:27:00,
2013-09-27 03:32:00,59.5,58.1,30.06,ESE,112,0.0,0.0,95,0.00,,,0.00,0.0,meteohub,2013-09-27 07:32:00,
2013-09-27 03:37:00,59.4,57.9,30.06,ESE,112,0.0,0.0,95,0.00,,,0.00,0.0,meteohub,2013-09-27 07:37:00,
2013-09-27 03:42:00,59.4,58.3,30.06,ESE,111,0.0,0.0,96,0.00,,,0.00,0.0,meteohub,2013-09-27 07:42:00,
2013-09-27 03:47:00,59.4,58.3,30.06,ESE,111,0.0,0.0,96,0.00,,,0.00,0.0,meteohub,2013-09-27 07:47:00,
2013-09-27 03:50:00,59.4,58.3,30.06,ESE,111,0.0,0.0,96,0.00,,,0.00,0.0,meteohub,2013-09-27 07:50:00,
2013-09-27 03:55:00,59.4,58.3,30.06,ESE,111,0.0,0.0,96,0.00,,,0.00,0.0,meteohub,2013-09-27 07:55:00,
2013-09-27 04:00:00,59.4,58.3,30.06,ESE,111,0.0,0.0,96,0.00,,,0.00,0.0,meteohub,2013-09-27 08:00:00,
2013-09-27 04:05:00,59.5,58.6,30.06,ESE,112,0.0,0.0,97,0.00,,,0.00,0.0,meteohub,2013-09-27 08:05:00,
2013-09-27 04:10:00,59.5,58.5,30.06,ESE,111,0.0,0.0,96,0.00,,,0.00,0.0,meteohub,2013-09-27 08:10:00,
2013-09-27 04:15:00,59.5,58.5,30.06,ESE,112,0.0,0.0,96,0.00,,,0.00,0.0,meteohub,2013-09-27 08:15:00,
2013-09-27 04:20:00,59.4,58.3,30.07,ESE,111,0.0,0.0,96,0.00,,,0.00,0.0,meteohub,2013-09-27 08:20:00,
2013-09-27 04:25:00,59.4,58.5,30.07,ESE,112,0.0,0.0,97,0.00,,,0.00,0.0,meteohub,2013-09-27 08:25:00,
2013-09-27 04:30:00,59.4,58.5,30.07,ESE,111,0.0,0.0,97,0.00,,,0.00,0.0,meteohub,2013-09-27 08:30:00,
2013-09-27 04:35:00,59.4,58.5,30.07,ESE,112,0.0,0.0,97,0.00,,,0.00,0.0,meteohub,2013-09-27 08:35:00,
2013-09-27 04:40:00,59.4,58.3,30.07,ESE,112,0.0,0.0,96,0.00,,,0.00,0.0,meteohub,2013-09-27 08:40:00,
2013-09-27 04:45:00,59.4,58.3,30.07,ESE,111,0.0,0.0,96,0.00,,,0.00,0.0,meteohub,2013-09-27 08:45:00,
2013-09-27 04:50:00,59.5,58.5,30.07,ESE,112,0.0,0.0,96,0.00,,,0.00,0.0,meteohub,2013-09-27 08:50:00,
2013-09-27 04:55:00,59.5,58.1,30.07,ESE,112,0.0,0.0,95,0.00,,,0.00,0.0,meteohub,2013-09-27 08:55:00,
2013-09-27 05:00:00,59.7,58.3,30.08,ESE,112,0.0,0.0,95,0.00,,,0.00,0.0,meteohub,2013-09-27 09:00:00,
2013-09-27 05:06:00,59.9,58.5,30.08,ESE,111,0.0,0.0,95,0.00,,,0.00,0.0,meteohub,2013-09-27 09:06:00,
2013-09-27 05:11:00,59.9,58.5,30.08,ESE,112,0.0,1.0,95,0.00,,,0.00,0.0,meteohub,2013-09-27 09:11:00,
2013-09-27 05:16:00,59.9,58.5,30.08,ESE,111,1.0,1.0,95,0.00,,,0.00,0.0,meteohub,2013-09-27 09:16:00,
2013-09-27 05:21:00,60.1,58.3,30.08,ESE,112,0.0,1.0,94,0.00,,,0.00,0.0,meteohub,2013-09-27 09:21:00,
2013-09-27 05:26:00,60.3,58.8,30.08,ESE,112,0.0,2.0,95,0.00,,,0.00,0.0,meteohub,2013-09-27 09:26:00,
2013-09-27 05:31:00,60.3,58.5,30.08,ESE,111,0.0,2.0,94,0.00,,,0.00,0.0,meteohub,2013-09-27 09:31:00,
2013-09-27 05:36:00,60.1,58.3,30.09,ESE,112,0.0,2.0,94,0.00,,,0.00,0.0,meteohub,2013-09-27 09:36:00,
2013-09-27 05:41:00,60.1,58.3,30.09,ESE,111,0.0,2.0,94,0.00,,,0.00,0.0,meteohub,2013-09-27 09:41:00,
2013-09-27 05:46:00,60.1,58.3,30.09,ESE,111,0.0,2.0,94,0.00,,,0.00,0.0,meteohub,2013-09-27 09:46:00,
2013-09-27 05:51:00,60.1,58.3,30.09,ESE,112,0.0,1.0,94,0.00,,,0.00,0.0,meteohub,2013-09-27 09:51:00,
2013-09-27 05:56:00,60.1,58.6,30.09,ESE,111,0.0,1.0,95,0.00,,,0.00,0.0,meteohub,2013-09-27 09:56:00,
2013-09-27 06:01:00,60.1,58.6,30.09,ESE,112,0.0,1.0,95,0.00,,,0.00,0.0,meteohub,2013-09-27 10:01:00,
2013-09-27 06:06:00,60.1,58.6,30.10,ESE,111,0.0,1.0,95,0.00,,,0.00,0.0,meteohub,2013-09-27 10:06:00,
2013-09-27 06:11:00,60.1,58.6,30.10,ESE,112,0.0,1.0,95,0.00,,,0.00,0.0,meteohub,2013-09-27 10:11:00,
2013-09-27 06:17:00,60.1,58.6,30.10,ESE,111,0.0,1.0,95,0.00,,,0.00,0.0,meteohub,2013-09-27 10:17:00,
2013-09-27 06:22:00,60.3,58.8,30.10,ESE,112,0.0,2.0,95,0.00,,,0.00,0.0,meteohub,2013-09-27 10:22:00,
2013-09-27 06:27:00,60.3,58.8,30.10,ESE,112,0.0,2.0,95,0.00,,,0.00,0.0,meteohub,2013-09-27 10:27:00,
2013-09-27 06:32:00,60.3,58.8,30.10,ESE,111,0.0,2.0,95,0.00,,,0.00,0.0,meteohub,2013-09-27 10:32:00,
2013-09-27 06:37:00,60.3,58.8,30.10,ESE,111,0.0,0.0,95,0.00,,,0.00,0.0,meteohub,2013-09-27 10:37:00,
2013-09-27 06:42:00,60.3,58.8,30.10,ESE,112,0.0,0.0,95,0.00,,,0.00,0.0,meteohub,2013-09-27 10:42:00,
2013-09-27 06:47:00,60.3,58.8,30.10,ESE,112,1.0,0.0,95,0.00,,,0.00,0.0,meteohub,2013-09-27 10:47:00,
2013-09-27 06:52:00,60.3,58.8,30.11,ESE,112,0.0,1.0,95,0.00,,,0.00,0.0,meteohub,2013-09-27 10:52:00,
2013-09-27 06:57:00,60.3,58.8,30.11,ESE,112,0.0,2.0,95,0.00,,,0.00,0.0,meteohub,2013-09-27 10:57:00,
2013-09-27 07:02:00,60.3,58.8,30.11,ESE,112,0.0,2.0,95,0.00,,,0.00,0.0,meteohub,2013-09-27 11:02:00,
2013-09-27 07:07:00,60.3,58.8,30.11,ESE,111,0.0,2.0,95,0.00,,,0.00,0.0,meteohub,2013-09-27 11:07:00,
2013-09-27 07:12:00,60.3,58.8,30.11,ESE,111,0.0,2.0,95,0.00,,,0.00,0.0,meteohub,2013-09-27 11:12:00,
2013-09-27 07:17:00,60.4,59.4,30.12,ESE,112,0.0,2.0,96,0.00,,,0.00,7.0,meteohub,2013-09-27 11:17:00,
2013-09-27 07:22:00,60.4,59.4,30.12,ESE,112,0.0,2.0,96,0.00,,,0.00,11.0,meteohub,2013-09-27 11:22:00,
2013-09-27 07:27:00,60.6,59.5,30.12,ESE,111,0.0,1.0,96,0.00,,,0.00,14.0,meteohub,2013-09-27 11:27:00,
2013-09-27 07:32:00,60.6,59.5,30.12,ESE,111,0.0,2.0,96,0.00,,,0.00,23.0,meteohub,2013-09-27 11:32:00,
2013-09-27 07:37:00,60.8,59.7,30.12,ESE,111,0.0,2.0,96,0.00,,,0.00,25.0,meteohub,2013-09-27 11:37:00,
2013-09-27 07:42:00,61.0,59.9,30.12,ESE,111,0.0,4.0,96,0.00,,,0.00,28.0,meteohub,2013-09-27 11:42:00,
2013-09-27 07:47:00,61.2,60.1,30.12,ESE,111,0.0,4.0,96,0.00,,,0.00,33.0,meteohub,2013-09-27 11:47:00,
2013-09-27 07:52:00,61.2,60.1,30.12,ESE,111,0.0,4.0,96,0.00,,,0.00,39.0,meteohub,2013-09-27 11:52:00,
2013-09-27 07:57:00,61.3,60.3,30.13,ESE,111,1.0,2.0,96,0.00,,,0.00,44.0,meteohub,2013-09-27 11:57:00,
2013-09-27 08:02:00,61.5,60.1,30.13,ESE,111,0.0,2.0,95,0.00,,,0.00,47.0,meteohub,2013-09-27 12:02:00,
2013-09-27 08:07:00,61.7,60.6,30.13,ESE,111,0.0,2.0,96,0.00,,,0.00,47.0,meteohub,2013-09-27 12:07:00,
2013-09-27 08:12:00,61.9,60.4,30.14,ESE,111,0.0,2.0,95,0.00,,,0.00,49.0,meteohub,2013-09-27 12:12:00,
2013-09-27 08:17:00,62.1,60.6,30.14,ESE,111,0.0,2.0,95,0.00,,,0.00,62.0,meteohub,2013-09-27 12:17:00,
2013-09-27 08:22:00,62.2,60.8,30.14,ESE,111,0.0,2.0,95,0.00,,,0.00,72.0,meteohub,2013-09-27 12:22:00,
2013-09-27 08:27:00,62.4,61.0,30.14,ESE,111,0.0,1.0,95,0.00,,,0.00,83.0,meteohub,2013-09-27 12:27:00,
2013-09-27 08:32:00,62.6,61.2,30.14,ESE,111,0.0,1.0,95,0.00,,,0.00,83.0,meteohub,2013-09-27 12:32:00,
2013-09-27 08:37:00,62.8,61.3,30.14,ESE,111,0.0,1.0,95,0.00,,,0.00,84.0,meteohub,2013-09-27 12:37:00,
2013-09-27 08:42:00,63.0,61.5,30.14,ESE,111,0.0,1.0,95,0.00,,,0.00,90.0,meteohub,2013-09-27 12:42:00,
2013-09-27 08:47:00,63.0,61.5,30.14,ESE,111,0.0,1.0,95,0.00,,,0.00,100.0,meteohub,2013-09-27 12:47:00,
2013-09-27 08:52:00,63.1,61.7,30.15,ESE,111,0.0,1.0,95,0.00,,,0.00,104.0,meteohub,2013-09-27 12:52:00,
2013-09-27 08:57:00,63.3,61.9,30.14,ESE,111,0.0,1.0,95,0.00,,,0.00,105.0,meteohub,2013-09-27 12:57:00,
2013-09-27 09:02:00,63.7,62.2,30.15,ESE,111,0.0,1.0,95,0.00,,,0.00,95.0,meteohub,2013-09-27 13:02:00,
2013-09-27 09:07:00,63.9,62.1,30.15,ESE,111,0.0,1.0,94,0.00,,,0.00,95.0,meteohub,2013-09-27 13:07:00,
2013-09-27 09:12:00,63.9,62.1,30.15,ESE,111,0.0,1.0,94,0.00,,,0.00,95.0,meteohub,2013-09-27 13:12:00,
2013-09-27 09:17:00,64.0,62.2,30.15,ESE,111,0.0,2.0,94,0.00,,,0.00,105.0,meteohub,2013-09-27 13:17:00,
2013-09-27 09:22:00,64.0,62.2,30.15,ESE,118,0.0,2.0,94,0.00,,,0.00,135.0,meteohub,2013-09-27 13:22:00,
2013-09-27 09:27:00,64.2,62.4,30.15,ESE,117,0.0,5.0,94,0.00,,,0.00,151.0,meteohub,2013-09-27 13:27:00,
2013-09-27 09:32:00,64.6,62.4,30.15,ESE,120,0.0,5.0,93,0.00,,,0.00,183.0,meteohub,2013-09-27 13:32:00,
2013-09-27 09:37:00,64.8,62.6,30.15,ESE,117,0.0,5.0,93,0.00,,,0.00,216.0,meteohub,2013-09-27 13:37:00,
2013-09-27 09:42:00,64.9,62.6,30.16,SE,140,0.0,4.0,92,0.00,,,0.00,227.0,meteohub,2013-09-27 13:42:00,
2013-09-27 09:47:00,65.1,62.8,30.16,SE,126,0.0,8.0,92,0.00,,,0.00,225.0,meteohub,2013-09-27 13:47:00,
2013-09-27 09:52:00,65.3,62.6,30.16,SE,126,1.0,8.0,91,0.00,,,0.00,225.0,meteohub,2013-09-27 13:52:00,
2013-09-27 09:57:00,65.3,62.2,30.16,East,101,2.0,5.0,90,0.00,,,0.00,181.0,meteohub,2013-09-27 13:57:00,
2013-09-27 10:02:00,65.5,62.4,30.16,East,101,0.0,7.0,90,0.00,,,0.00,162.0,meteohub,2013-09-27 14:02:00,
2013-09-27 10:07:00,65.5,62.4,30.17,SE,134,0.0,7.0,90,0.00,,,0.00,130.0,meteohub,2013-09-27 14:07:00,
2013-09-27 10:12:00,65.3,62.1,30.17,ESE,113,1.0,7.0,89,0.00,,,0.00,176.0,meteohub,2013-09-27 14:12:00,
2013-09-27 10:17:00,65.5,62.4,30.17,NE,49,3.0,5.0,90,0.00,,,0.00,213.0,meteohub,2013-09-27 14:17:00,
2013-09-27 10:22:00,65.7,62.2,30.17,SE,125,6.0,6.0,89,0.00,,,0.00,193.0,meteohub,2013-09-27 14:22:00,
2013-09-27 10:27:00,65.5,62.2,30.17,SE,125,0.0,6.0,89,0.00,,,0.00,137.0,meteohub,2013-09-27 14:27:00,
2013-09-27 10:32:00,65.7,62.6,30.17,SE,125,0.0,6.0,90,0.00,,,0.00,93.0,meteohub,2013-09-27 14:32:00,
2013-09-27 10:37:00,65.7,62.2,30.17,SSE,157,0.0,6.0,89,0.00,,,0.00,163.0,meteohub,2013-09-27 14:37:00,
2013-09-27 10:42:00,65.7,62.2,30.17,SSE,167,0.0,5.0,89,0.00,,,0.00,292.0,meteohub,2013-09-27 14:42:00,
2013-09-27 10:47:00,65.8,62.2,30.17,SE,138,0.0,6.0,88,0.00,,,0.00,330.0,meteohub,2013-09-27 14:47:00,
2013-09-27 10:52:00,66.0,62.1,30.17,SE,138,2.0,7.0,87,0.00,,,0.00,265.0,meteohub,2013-09-27 14:52:00,
2013-09-27 10:57:00,66.4,62.4,30.17,SSE,149,0.0,7.0,87,0.00,,,0.00,276.0,meteohub,2013-09-27 14:57:00,
2013-09-27 11:02:00,66.6,62.6,30.17,SSE,148,0.0,7.0,87,0.00,,,0.00,227.0,meteohub,2013-09-27 15:02:00,
2013-09-27 11:07:00,66.7,62.4,30.17,SE,128,4.0,7.0,86,0.00,,,0.00,281.0,meteohub,2013-09-27 15:07:00,
2013-09-27 11:12:00,67.1,62.8,30.17,SE,130,0.0,5.0,86,0.00,,,0.00,251.0,meteohub,2013-09-27 15:12:00,
2013-09-27 11:17:00,67.3,62.6,30.17,SE,130,0.0,4.0,85,0.00,,,0.00,216.0,meteohub,2013-09-27 15:17:00,
2013-09-27 11:22:00,67.3,62.6,30.17,SE,131,0.0,4.0,85,0.00,,,0.00,213.0,meteohub,2013-09-27 15:22:00,
2013-09-27 11:27:00,67.1,62.8,30.17,SE,130,1.0,5.0,86,0.00,,,0.00,209.0,meteohub,2013-09-27 15:27:00,
2013-09-27 11:32:00,66.7,62.1,30.17,SE,129,0.0,6.0,85,0.00,,,0.00,279.0,meteohub,2013-09-27 15:32:00,
2013-09-27 11:37:00,66.9,62.6,30.17,SE,129,0.0,6.0,86,0.00,,,0.00,346.0,meteohub,2013-09-27 15:37:00,
2013-09-27 11:42:00,67.3,62.6,30.17,SE,129,0.0,6.0,85,0.00,,,0.00,357.0,meteohub,2013-09-27 15:42:00,
2013-09-27 11:47:00,67.6,63.0,30.17,SE,129,0.0,6.0,85,0.00,,,0.00,336.0,meteohub,2013-09-27 15:47:00,
2013-09-27 11:52:00,68.2,63.1,30.17,SE,129,0.0,5.0,84,0.00,,,0.00,302.0,meteohub,2013-09-27 15:52:00,
2013-09-27 11:57:00,68.2,62.4,30.17,SSE,163,0.0,4.0,82,0.00,,,0.00,376.0,meteohub,2013-09-27 15:57:00,
2013-09-27 12:02:00,68.4,63.0,30.17,SSE,161,0.0,5.0,83,0.00,,,0.00,309.0,meteohub,2013-09-27 16:02:00,
2013-09-27 12:07:00,68.5,62.4,30.17,SE,135,0.0,6.0,81,0.00,,,0.00,322.0,meteohub,2013-09-27 16:07:00,
2013-09-27 12:12:00,68.4,61.5,30.17,ESE,119,0.0,6.0,79,0.00,,,0.00,410.0,meteohub,2013-09-27 16:12:00,
2013-09-27 12:17:00,68.7,62.6,30.17,SSW,203,4.0,6.0,81,0.00,,,0.00,461.0,meteohub,2013-09-27 16:17:00,
2013-09-27 12:22:00,69.3,62.1,30.17,SSE,156,6.0,6.0,78,0.00,,,0.00,633.0,meteohub,2013-09-27 16:22:00,
2013-09-27 12:27:00,69.6,62.1,30.17,SSW,192,1.0,8.0,77,0.00,,,0.00,392.0,meteohub,2013-09-27 16:27:00,
2013-09-27 12:32:00,70.2,62.6,30.17,ESE,122,0.0,8.0,77,0.00,,,0.00,925.0,meteohub,2013-09-27 16:32:00,
2013-09-27 12:37:00,70.3,62.8,30.17,ESE,123,1.0,8.0,77,0.00,,,0.00,970.0,meteohub,2013-09-27 16:37:00,
2013-09-27 12:42:00,70.9,61.9,30.17,ESE,109,4.0,6.0,73,0.00,,,0.00,1069.0,meteohub,2013-09-27 16:42:00,
2013-09-27 12:47:00,70.5,61.9,30.17,SE,140,0.0,10.0,74,0.00,,,0.00,401.0,meteohub,2013-09-27 16:47:00,
2013-09-27 12:52:00,70.3,61.7,30.17,ESE,105,0.0,10.0,74,0.00,,,0.00,367.0,meteohub,2013-09-27 16:52:00,
2013-09-27 12:57:00,70.2,61.5,30.16,SSE,150,0.0,9.0,74,0.00,,,0.00,490.0,meteohub,2013-09-27 16:57:00,
2013-09-27 13:02:00,70.3,61.7,30.16,East,93,1.0,9.0,74,0.00,,,0.00,573.0,meteohub,2013-09-27 17:02:00,
2013-09-27 13:07:00,70.5,61.9,30.16,SE,129,0.0,7.0,74,0.00,,,0.00,585.0,meteohub,2013-09-27 17:07:00,
2013-09-27 13:12:00,70.9,61.9,30.16,SSE,159,0.0,7.0,73,0.00,,,0.00,401.0,meteohub,2013-09-27 17:12:00,
2013-09-27 13:17:00,70.9,61.9,30.16,SE,131,0.0,6.0,73,0.00,,,0.00,424.0,meteohub,2013-09-27 17:17:00,
2013-09-27 13:22:00,71.1,61.9,30.16,SE,126,0.0,6.0,73,0.00,,,0.00,299.0,meteohub,2013-09-27 17:22:00,
2013-09-27 13:26:00,71.2,61.7,30.16,SE,127,1.0,6.0,72,0.00,,,0.00,206.0,meteohub,2013-09-27 17:26:00,
2013-09-27 13:31:00,70.9,62.2,30.16,SE,130,0.0,6.0,74,0.00,,,0.00,139.0,meteohub,2013-09-27 17:31:00,
2013-09-27 13:36:00,69.8,61.9,30.15,ESE,123,6.0,7.0,76,0.00,,,0.00,160.0,meteohub,2013-09-27 17:36:00,
2013-09-27 13:41:00,69.3,61.3,30.15,ESE,110,0.0,7.0,76,0.00,,,0.00,179.0,meteohub,2013-09-27 17:41:00,
2013-09-27 13:46:00,69.1,61.5,30.15,ESE,115,0.0,7.0,77,0.00,,,0.00,183.0,meteohub,2013-09-27 17:46:00,
2013-09-27 13:51:00,69.3,61.7,30.15,ENE,78,3.0,6.0,77,0.00,,,0.00,176.0,meteohub,2013-09-27 17:51:00,
2013-09-27 13:56:00,69.3,61.7,30.15,ENE,78,0.0,4.0,77,0.00,,,0.00,221.0,meteohub,2013-09-27 17:56:00,
2013-09-27 14:01:00,69.6,61.3,30.14,SE,138,6.0,6.0,75,0.00,,,0.00,861.0,meteohub,2013-09-27 18:01:00,
2013-09-27 14:06:00,70.2,61.9,30.14,SE,128,0.0,7.0,75,0.00,,,0.00,928.0,meteohub,2013-09-27 18:06:00,
2013-09-27 14:11:00,70.7,62.1,30.14,SE,138,0.0,7.0,74,0.00,,,0.00,1016.0,meteohub,2013-09-27 18:11:00,
2013-09-27 14:16:00,71.4,62.8,30.14,South,191,2.0,6.0,74,0.00,,,0.00,1055.0,meteohub,2013-09-27 18:16:00,
2013-09-27 14:21:00,72.1,63.0,30.14,SW,214,0.0,7.0,73,0.00,,,0.00,949.0,meteohub,2013-09-27 18:21:00,
2013-09-27 14:26:00,72.0,62.4,30.14,ESE,118,6.0,7.0,72,0.00,,,0.00,111.0,meteohub,2013-09-27 18:26:00,
2013-09-27 14:31:00,70.7,62.1,30.14,ENE,74,0.0,9.0,74,0.00,,,0.00,83.0,meteohub,2013-09-27 18:31:00,
2013-09-27 14:36:00,70.2,61.9,30.14,SE,126,0.0,9.0,75,0.00,,,0.00,88.0,meteohub,2013-09-27 18:36:00,
2013-09-27 14:42:00,69.4,61.2,30.14,SE,128,0.0,9.0,75,0.00,,,0.00,105.0,meteohub,2013-09-27 18:42:00,
2013-09-27 14:47:00,69.3,61.3,30.14,ESE,115,0.0,6.0,76,0.00,,,0.00,125.0,meteohub,2013-09-27 18:47:00,
2013-09-27 14:52:00,69.3,61.3,30.14,ESE,118,0.0,5.0,76,0.00,,,0.00,146.0,meteohub,2013-09-27 18:52:00,
2013-09-27 14:57:00,69.3,61.7,30.14,ESE,113,0.0,6.0,77,0.00,,,0.00,162.0,meteohub,2013-09-27 18:57:00,
2013-09-27 15:02:00,69.3,61.3,30.13,SE,125,0.0,6.0,76,0.00,,,0.00,181.0,meteohub,2013-09-27 19:02:00,
2013-09-27 15:07:00,69.3,61.3,30.14,East,96,0.0,6.0,76,0.00,,,0.00,204.0,meteohub,2013-09-27 19:07:00,
2013-09-27 15:12:00,69.3,61.3,30.13,East,98,0.0,6.0,76,0.00,,,0.00,218.0,meteohub,2013-09-27 19:12:00,
2013-09-27 15:17:00,69.4,61.9,30.13,East,101,0.0,6.0,77,0.00,,,0.00,237.0,meteohub,2013-09-27 19:17:00,
2013-09-27 15:22:00,69.6,61.7,30.13,East,100,0.0,5.0,76,0.00,,,0.00,248.0,meteohub,2013-09-27 19:22:00,
2013-09-27 15:27:00,69.8,61.2,30.13,East,100,0.0,5.0,74,0.00,,,0.00,364.0,meteohub,2013-09-27 19:27:00,
2013-09-27 15:32:00,69.8,60.8,30.13,East,96,1.0,4.0,73,0.00,,,0.00,536.0,meteohub,2013-09-27 19:32:00,
2013-09-27 15:37:00,70.0,61.3,30.13,East,96,0.0,4.0,74,0.00,,,0.00,766.0,meteohub,2013-09-27 19:37:00,
2013-09-27 15:42:00,70.5,61.5,30.13,East,97,0.0,5.0,73,0.00,,,0.00,260.0,meteohub,2013-09-27 19:42:00,
2013-09-27 15:47:00,71.1,61.9,30.13,East,97,0.0,5.0,73,0.00,,,0.00,336.0,meteohub,2013-09-27 19:47:00,
2013-09-27 15:52:00,71.1,61.5,30.13,ESE,123,0.0,5.0,72,0.00,,,0.00,647.0,meteohub,2013-09-27 19:52:00,
2013-09-27 15:57:00,71.2,61.7,30.13,NW,325,0.0,5.0,72,0.00,,,0.00,698.0,meteohub,2013-09-27 19:57:00,
2013-09-27 16:02:00,71.6,62.1,30.13,NNE,29,0.0,5.0,72,0.00,,,0.00,301.0,meteohub,2013-09-27 20:02:00,
2013-09-27 16:07:00,72.0,62.1,30.13,NNE,15,0.0,5.0,71,0.00,,,0.00,269.0,meteohub,2013-09-27 20:07:00,
2013-09-27 16:12:00,72.0,61.7,30.13,SE,128,2.0,4.0,70,0.00,,,0.00,221.0,meteohub,2013-09-27 20:12:00,
2013-09-27 16:17:00,71.2,61.0,30.13,East,80,0.0,6.0,70,0.00,,,0.00,199.0,meteohub,2013-09-27 20:17:00,
2013-09-27 16:22:00,71.1,60.8,30.13,East,80,0.0,6.0,70,0.00,,,0.00,229.0,meteohub,2013-09-27 20:22:00,
2013-09-27 16:27:00,71.2,61.0,30.13,East,80,0.0,6.0,70,0.00,,,0.00,241.0,meteohub,2013-09-27 20:27:00,
2013-09-27 16:32:00,71.4,61.5,30.13,East,80,0.0,3.0,71,0.00,,,0.00,169.0,meteohub,2013-09-27 20:32:00,
2013-09-27 16:37:00,71.4,61.2,30.13,East,80,0.0,2.0,70,0.00,,,0.00,130.0,meteohub,2013-09-27 20:37:00,
2013-09-27 16:42:00,71.2,61.7,30.13,East,80,0.0,3.0,72,0.00,,,0.00,109.0,meteohub,2013-09-27 20:42:00,
2013-09-27 16:47:00,71.1,61.5,30.13,East,80,0.0,4.0,72,0.00,,,0.00,181.0,meteohub,2013-09-27 20:47:00,
2013-09-27 16:52:00,70.9,61.0,30.13,East,80,0.0,4.0,71,0.00,,,0.00,139.0,meteohub,2013-09-27 20:52:00,
2013-09-27 16:57:00,70.7,61.2,30.13,East,80,0.0,2.0,72,0.00,,,0.00,146.0,meteohub,2013-09-27 20:57:00,
2013-09-27 17:02:00,70.5,60.6,30.13,East,80,0.0,2.0,71,0.00,,,0.00,279.0,meteohub,2013-09-27 21:02:00,
2013-09-27 17:07:00,70.5,60.6,30.13,East,80,0.0,2.0,71,0.00,,,0.00,132.0,meteohub,2013-09-27 21:07:00,
2013-09-27 17:12:00,70.5,61.0,30.13,East,80,0.0,1.0,72,0.00,,,0.00,141.0,meteohub,2013-09-27 21:12:00,
2013-09-27 17:17:00,70.7,60.8,30.13,East,80,0.0,1.0,71,0.00,,,0.00,125.0,meteohub,2013-09-27 21:17:00,
2013-09-27 17:22:00,70.9,61.3,30.13,East,80,0.0,0.0,72,0.00,,,0.00,132.0,meteohub,2013-09-27 21:22:00,
2013-09-27 17:27:00,70.9,61.0,30.13,East,80,0.0,1.0,71,0.00,,,0.00,113.0,meteohub,2013-09-27 21:27:00,
2013-09-27 17:32:00,70.5,61.0,30.13,East,80,0.0,1.0,72,0.00,,,0.00,98.0,meteohub,2013-09-27 21:32:00,
2013-09-27 17:37:00,70.3,60.4,30.13,East,80,0.0,1.0,71,0.00,,,0.00,100.0,meteohub,2013-09-27 21:37:00,
2013-09-27 17:42:00,70.5,61.0,30.14,East,80,0.0,1.0,72,0.00,,,0.00,113.0,meteohub,2013-09-27 21:42:00,
2013-09-27 17:47:00,70.5,61.0,30.14,East,80,0.0,0.0,72,0.00,,,0.00,105.0,meteohub,2013-09-27 21:47:00,
2013-09-27 17:52:00,70.5,60.6,30.13,East,80,0.0,0.0,71,0.00,,,0.00,100.0,meteohub,2013-09-27 21:52:00,
2013-09-27 17:57:00,70.5,61.0,30.13,East,80,0.0,0.0,72,0.00,,,0.00,125.0,meteohub,2013-09-27 21:57:00,
2013-09-27 18:02:00,70.3,60.8,30.14,East,80,0.0,0.0,72,0.00,,,0.00,134.0,meteohub,2013-09-27 22:02:00,
2013-09-27 18:07:00,70.3,60.4,30.14,East,80,0.0,1.0,71,0.00,,,0.00,83.0,meteohub,2013-09-27 22:07:00,
2013-09-27 18:12:00,70.3,61.3,30.13,East,80,0.0,1.0,73,0.00,,,0.00,65.0,meteohub,2013-09-27 22:12:00,
2013-09-27 18:17:00,70.3,60.8,30.14,East,80,0.0,1.0,72,0.00,,,0.00,49.0,meteohub,2013-09-27 22:17:00,
2013-09-27 18:22:00,70.2,60.6,30.14,East,80,0.0,4.0,72,0.00,,,0.00,39.0,meteohub,2013-09-27 22:22:00,
2013-09-27 18:27:00,70.2,61.2,30.14,East,80,0.0,4.0,73,0.00,,,0.00,33.0,meteohub,2013-09-27 22:27:00,
2013-09-27 18:32:00,70.0,61.3,30.14,East,80,1.0,4.0,74,0.00,,,0.00,19.0,meteohub,2013-09-27 22:32:00,
2013-09-27 18:37:00,69.6,60.6,30.13,East,91,0.0,4.0,73,0.00,,,0.00,14.0,meteohub,2013-09-27 22:37:00,
2013-09-27 18:42:00,69.3,60.3,30.14,ESE,106,2.0,8.0,73,0.00,,,0.00,9.0,meteohub,2013-09-27 22:42:00,
2013-09-27 18:47:00,69.1,60.4,30.14,ESE,109,0.0,8.0,74,0.00,,,0.00,5.0,meteohub,2013-09-27 22:47:00,
2013-09-27 18:52:00,68.7,60.1,30.14,ESE,107,2.0,7.0,74,0.00,,,0.00,0.0,meteohub,2013-09-27 22:52:00,
2013-09-27 18:57:00,68.7,60.1,30.14,ESE,115,0.0,7.0,74,0.00,,,0.00,0.0,meteohub,2013-09-27 22:57:00,
2013-09-27 19:02:00,68.5,60.3,30.14,ESE,115,0.0,4.0,75,0.00,,,0.00,0.0,meteohub,2013-09-27 23:02:00,
2013-09-27 19:07:00,68.4,60.1,30.14,ESE,115,0.0,4.0,75,0.00,,,0.00,0.0,meteohub,2013-09-27 23:07:00,
2013-09-27 19:12:00,68.2,60.3,30.14,ESE,115,0.0,4.0,76,0.00,,,0.00,0.0,meteohub,2013-09-27 23:12:00,
2013-09-27 19:17:00,68.0,60.1,30.14,ESE,114,0.0,2.0,76,0.00,,,0.00,0.0,meteohub,2013-09-27 23:17:00,
2013-09-27 19:22:00,67.6,59.7,30.14,ESE,114,0.0,4.0,76,0.00,,,0.00,0.0,meteohub,2013-09-27 23:22:00,
2013-09-27 19:27:00,67.5,60.1,30.14,ESE,114,0.0,4.0,77,0.00,,,0.00,0.0,meteohub,2013-09-27 23:27:00,
2013-09-27 19:32:00,66.9,59.9,30.15,ESE,114,0.0,4.0,78,0.00,,,0.00,0.0,meteohub,2013-09-27 23:32:00,
2013-09-27 19:37:00,66.6,59.5,30.15,ESE,114,0.0,1.0,78,0.00,,,0.00,0.0,meteohub,2013-09-27 23:37:00,
2013-09-27 19:42:00,66.4,59.7,30.15,ESE,114,0.0,1.0,79,0.00,,,0.00,0.0,meteohub,2013-09-27 23:42:00,
2013-09-27 19:47:00,66.0,59.7,30.15,ESE,114,0.0,0.0,80,0.00,,,0.00,0.0,meteohub,2013-09-27 23:47:00,
2013-09-27 19:52:00,65.8,59.5,30.16,ESE,114,0.0,1.0,80,0.00,,,0.00,0.0,meteohub,2013-09-27 23:52:00,
2013-09-27 19:57:00,65.7,59.7,30.16,ESE,114,0.0,1.0,81,0.00,,,0.00,0.0,meteohub,2013-09-27 23:57:00,
2013-09-27 20:02:00,65.5,59.5,30.16,ESE,114,0.0,0.0,81,0.00,,,0.00,0.0,meteohub,2013-09-28 00:02:00,
2013-09-27 20:07:00,65.1,59.2,30.16,ESE,114,0.0,0.0,81,0.00,,,0.00,0.0,meteohub,2013-09-28 00:07:00,
2013-09-27 20:12:00,65.1,59.5,30.16,ESE,114,0.0,0.0,82,0.00,,,0.00,0.0,meteohub,2013-09-28 00:12:00,
2013-09-27 20:17:00,64.8,59.2,30.16,ESE,114,0.0,0.0,82,0.00,,,0.00,0.0,meteohub,2013-09-28 00:17:00,
2013-09-27 20:22:00,64.8,59.5,30.16,ESE,114,0.0,0.0,83,0.00,,,0.00,0.0,meteohub,2013-09-28 00:22:00,
2013-09-27 20:27:00,64.6,59.4,30.16,ESE,114,0.0,0.0,83,0.00,,,0.00,0.0,meteohub,2013-09-28 00:27:00,
2013-09-27 20:32:00,64.6,59.4,30.16,ESE,114,0.0,1.0,83,0.00,,,0.00,0.0,meteohub,2013-09-28 00:32:00,
2013-09-27 20:37:00,64.6,59.4,30.16,ESE,114,0.0,1.0,83,0.00,,,0.00,0.0,meteohub,2013-09-28 00:37:00,
2013-09-27 20:42:00,64.4,59.2,30.16,ESE,114,0.0,1.0,83,0.00,,,0.00,0.0,meteohub,2013-09-28 00:42:00,
2013-09-27 20:47:00,64.2,59.0,30.17,ESE,114,0.0,0.0,83,0.00,,,0.00,0.0,meteohub,2013-09-28 00:47:00,
2013-09-27 20:52:00,64.0,58.8,30.17,ESE,114,0.0,0.0,83,0.00,,,0.00,0.0,meteohub,2013-09-28 00:52:00,
2013-09-27 20:58:00,64.0,59.2,30.17,ESE,114,0.0,0.0,84,0.00,,,0.00,0.0,meteohub,2013-09-28 00:58:00,
2013-09-27 21:03:00,63.9,59.0,30.17,ESE,114,0.0,0.0,84,0.00,,,0.00,0.0,meteohub,2013-09-28 01:03:00,
2013-09-27 21:08:00,63.7,58.8,30.17,ESE,114,0.0,0.0,84,0.00,,,0.00,0.0,meteohub,2013-09-28 01:08:00,
2013-09-27 21:13:00,63.7,58.8,30.17,ESE,114,0.0,0.0,84,0.00,,,0.00,0.0,meteohub,2013-09-28 01:13:00,
2013-09-27 21:18:00,63.7,58.8,30.17,ESE,114,0.0,0.0,84,0.00,,,0.00,0.0,meteohub,2013-09-28 01:18:00,
2013-09-27 21:23:00,63.7,58.8,30.17,ESE,114,0.0,0.0,84,0.00,,,0.00,0.0,meteohub,2013-09-28 01:23:00,
2013-09-27 21:28:00,63.9,59.0,30.18,ESE,114,0.0,0.0,84,0.00,,,0.00,0.0,meteohub,2013-09-28 01:28:00,
2013-09-27 21:33:00,63.7,58.8,30.18,ESE,114,0.0,0.0,84,0.00,,,0.00,0.0,meteohub,2013-09-28 01:33:00,
2013-09-27 21:38:00,63.5,58.6,30.18,ESE,114,0.0,0.0,84,0.00,,,0.00,0.0,meteohub,2013-09-28 01:38:00,
2013-09-27 21:43:00,63.5,58.8,30.18,ESE,114,0.0,0.0,85,0.00,,,0.00,0.0,meteohub,2013-09-28 01:43:00,
2013-09-27 21:48:00,63.3,58.8,30.18,ESE,114,0.0,0.0,85,0.00,,,0.00,0.0,meteohub,2013-09-28 01:48:00,
2013-09-27 21:53:00,63.3,58.8,30.18,ESE,114,0.0,1.0,85,0.00,,,0.00,0.0,meteohub,2013-09-28 01:53:00,
2013-09-27 21:58:00,63.1,58.6,30.18,ESE,113,0.0,1.0,85,0.00,,,0.00,0.0,meteohub,2013-09-28 01:58:00,
2013-09-27 22:04:00,63.1,58.8,30.18,ESE,114,0.0,1.0,86,0.00,,,0.00,0.0,meteohub,2013-09-28 02:04:00,
2013-09-27 22:09:00,63.0,58.6,30.19,ESE,114,0.0,0.0,86,0.00,,,0.00,0.0,meteohub,2013-09-28 02:09:00,
2013-09-27 22:14:00,63.0,58.6,30.19,ESE,114,0.0,0.0,86,0.00,,,0.00,0.0,meteohub,2013-09-28 02:14:00,
2013-09-27 22:19:00,63.0,59.0,30.20,ESE,111,0.0,4.0,87,0.00,,,0.00,0.0,meteohub,2013-09-28 02:19:00,
2013-09-27 22:24:00,63.0,58.6,30.20,ESE,110,0.0,4.0,86,0.00,,,0.00,0.0,meteohub,2013-09-28 02:24:00,
2013-09-27 22:29:00,63.1,58.8,30.20,ESE,118,0.0,4.0,86,0.00,,,0.00,0.0,meteohub,2013-09-28 02:29:00,
2013-09-27 22:34:00,63.1,58.8,30.20,ESE,119,4.0,4.0,86,0.00,,,0.00,0.0,meteohub,2013-09-28 02:34:00,
2013-09-27 22:39:00,63.0,58.6,30.20,ESE,113,0.0,4.0,86,0.00,,,0.00,0.0,meteohub,2013-09-28 02:39:00,
2013-09-27 22:44:00,63.0,58.6,30.20,ESE,102,0.0,6.0,86,0.00,,,0.00,0.0,meteohub,2013-09-28 02:44:00,
2013-09-27 22:49:00,62.8,58.8,30.20,ESE,102,0.0,6.0,87,0.00,,,0.00,0.0,meteohub,2013-09-28 02:49:00,
2013-09-27 22:54:00,62.6,58.6,30.20,East,101,0.0,4.0,87,0.00,,,0.00,0.0,meteohub,2013-09-28 02:54:00,
2013-09-27 23:00:00,62.4,58.8,30.20,East,98,0.0,4.0,88,0.00,,,0.00,0.0,meteohub,2013-09-28 03:00:00,
2013-09-27 23:05:00,62.4,58.8,30.20,East,94,0.0,5.0,88,0.00,,,0.00,0.0,meteohub,2013-09-28 03:05:00,
2013-09-27 23:10:00,62.4,58.5,30.20,ESE,121,0.0,6.0,87,0.00,,,0.00,0.0,meteohub,2013-09-28 03:10:00,
2013-09-27 23:15:00,62.2,58.6,30.21,East,101,4.0,6.0,88,0.00,,,0.00,0.0,meteohub,2013-09-28 03:15:00,
2013-09-27 23:20:00,62.2,58.6,30.21,East,101,0.0,6.0,88,0.00,,,0.00,0.0,meteohub,2013-09-28 03:20:00,
2013-09-27 23:25:00,62.1,58.5,30.21,ESE,106,5.0,6.0,88,0.00,,,0.00,0.0,meteohub,2013-09-28 03:25:00,
2013-09-27 23:30:00,62.1,58.5,30.21,SE,125,0.0,6.0,88,0.00,,,0.00,0.0,meteohub,2013-09-28 03:30:00,
2013-09-27 23:35:00,61.9,58.3,30.21,ESE,120,0.0,6.0,88,0.00,,,0.00,0.0,meteohub,2013-09-28 03:35:00,
2013-09-27 23:40:00,61.9,58.3,30.21,East,80,1.0,9.0,88,0.00,,,0.00,0.0,meteohub,2013-09-28 03:40:00,
2013-09-27 23:45:00,61.7,58.1,30.21,ESE,109,0.0,9.0,88,0.00,,,0.00,0.0,meteohub,2013-09-28 03:45:00,
2013-09-27 23:50:00,61.5,58.3,30.21,ESE,109,0.0,9.0,89,0.00,,,0.00,0.0,meteohub,2013-09-28 03:50:00,
2013-09-27 23:55:00,61.3,58.1,30.21,ESE,109,1.0,6.0,89,0.00,,,0.00,0.0,meteohub,2013-09-28 03:55:00,